Time;durP1;ratioP1;P1;durP2;ratioP2;P2;SDS_P1;SDS_P2;PMS_P1;PMS_P2;Temp;Humidity;BMP_temperature;BMP_pressure;BME280_temperature;BME280_humidity;BME280_pressure;Samples;Min_cycle;Max_cycle;Signal;HPM_P1;HPM_P2
2023/04/12 00:02:03;;;;;;;;;;;10.20;99.90;;;;;;5000557;28;19917;-59
2023/04/12 00:04:29;;;;;;;;;;;10.20;99.90;;;;;;5001532;28;19918;-58
2023/04/12 00:06:54;;;;;;;;;;;10.20;99.90;;;;;;5008827;28;20410;-59
2023/04/12 00:09:20;;;;;;;;;;;10.20;99.90;;;;;;5002316;28;20434;-57
2023/04/12 00:11:46;;;;;;;;;;;10.10;99.90;;;;;;5009876;28;19963;-60
2023/04/12 00:14:11;;;;;;;;;;;10.20;99.90;;;;;;5007663;28;19913;-60
2023/04/12 00:16:37;;;;;;;;;;;10.30;99.90;;;;;;5010484;28;19976;-61
2023/04/12 00:19:03;;;;;;;;;;;10.30;99.90;;;;;;5007885;28;19966;-61
2023/04/12 00:21:29;;;;;;;;;;;10.30;99.90;;;;;;5010996;28;20310;-58
2023/04/12 00:23:55;;;;;;;;;;;10.30;99.90;;;;;;5008858;28;20541;-60
2023/04/12 00:26:21;;;;;;;;;;;10.20;99.90;;;;;;5004639;28;19914;-60
2023/04/12 00:28:47;;;;;;;;;;;10.20;99.90;;;;;;5007188;28;19971;-60
2023/04/12 00:31:12;;;;;;;;;;;10.20;99.90;;;;;;5006566;28;19926;-61
2023/04/12 00:33:37;;;;;;;;;;;10.10;99.90;;;;;;5004114;28;19921;-58
2023/04/12 00:36:03;;;;;;;;;;;10.10;99.90;;;;;;5007828;28;19917;-61
2023/04/12 00:38:28;;;;;;;;;;;10.10;99.90;;;;;;5005925;28;19914;-61
2023/04/12 00:40:54;;;;;;;;;;;10.00;99.90;;;;;;5003846;28;19936;-59
2023/04/12 00:43:20;;;;;;;;;;;10.00;99.90;;;;;;5004616;28;20406;-58
2023/04/12 00:45:45;;;;;;;;;;;10.00;99.90;;;;;;5006882;28;19963;-57
2023/04/12 00:48:11;;;;;;;;;;;9.90;99.90;;;;;;5004515;28;19913;-61
2023/04/12 00:50:43;;;;;;;;;;;9.90;99.90;;;;;;5006948;28;20411;-59
2023/04/12 00:53:12;;;;;;;;;;;9.80;99.90;;;;;;5006125;28;19917;-63
2023/04/12 00:55:39;;;;;;;;;;;9.90;99.90;;;;;;5007540;28;19920;-62
2023/04/12 00:58:05;;;;;;;;;;;9.80;99.90;;;;;;5008223;28;19920;-60
2023/04/12 01:00:30;;;;;;;;;;;9.70;99.90;;;;;;5004274;28;19913;-60
2023/04/12 01:02:57;;;;;;;;;;;9.70;99.90;;;;;;5004517;28;19920;-60
2023/04/12 01:05:23;;;;;;;;;;;9.60;99.90;;;;;;5003234;28;20359;-59
2023/04/12 01:07:53;;;;;;;;;;;9.60;99.90;;;;;;5006305;28;19941;-58
2023/04/12 01:10:30;;;;;;;;;;;9.50;99.90;;;;;;4998836;28;19921;-62
2023/04/12 01:12:55;;;;;;;;;;;9.60;99.90;;;;;;5007569;28;20384;-59
2023/04/12 01:15:23;;;;;;;;;;;9.50;99.90;;;;;;5003999;28;19964;-58
2023/04/12 01:18:07;;;;;;;;;;;9.50;99.90;;;;;;5008734;28;19948;-58
2023/04/12 01:20:36;;;;;;;;;;;9.50;99.90;;;;;;5001220;28;19959;-60
2023/04/12 01:23:13;;;;;;;;;;;9.40;99.90;;;;;;5005520;28;19918;-59
2023/04/12 01:25:48;;;;;;;;;;;9.50;99.90;;;;;;5005943;28;20379;-62
2023/04/12 01:28:14;;;;;;;;;;;9.40;99.90;;;;;;5005575;28;19941;-63
2023/04/12 01:30:41;;;;;;;;;;;9.40;99.90;;;;;;5006098;28;19961;-60
2023/04/12 01:33:09;;;;;;;;;;;9.30;99.90;;;;;;5002047;28;19914;-61
2023/04/12 01:35:35;;;;;;;;;;;9.30;99.90;;;;;;5004100;28;20028;-61
2023/04/12 01:38:02;;;;;;;;;;;9.30;99.90;;;;;;5008009;28;19948;-59
2023/04/12 01:40:29;;;;;;;;;;;9.20;99.90;;;;;;5003478;28;19940;-60
2023/04/12 01:43:03;;;;;;;;;;;9.20;99.90;;;;;;5006289;28;19922;-60
2023/04/12 01:45:29;;;;;;;;;;;9.20;99.90;;;;;;5004549;28;20345;-62
2023/04/12 01:47:55;;;;;;;;;;;9.30;99.90;;;;;;5006308;28;19913;-60
2023/04/12 01:50:22;;;;;;;;;;;9.20;99.90;;;;;;5005958;28;19960;-62
2023/04/12 01:53:02;;;;;;;;;;;9.20;99.90;;;;;;5011080;28;19913;-61
2023/04/12 01:55:29;;;;;;;;;;;9.20;99.90;;;;;;5010607;28;19975;-60
2023/04/12 01:57:55;;;;;;;;;;;9.10;99.90;;;;;;5004191;28;20378;-61
2023/04/12 02:00:21;;;;;;;;;;;9.10;99.90;;;;;;5003152;28;20755;-59
2023/04/12 02:02:47;;;;;;;;;;;9.10;99.90;;;;;;5008557;28;19956;-62
2023/04/12 02:05:12;;;;;;;;;;;9.10;99.90;;;;;;5008920;28;20330;-62
2023/04/12 02:07:38;;;;;;;;;;;9.00;99.90;;;;;;5010882;28;19913;-60
2023/04/12 02:10:04;;;;;;;;;;;9.00;99.90;;;;;;5006933;28;19972;-65
2023/04/12 02:12:29;;;;;;;;;;;9.00;99.90;;;;;;5007364;28;19925;-61
2023/04/12 02:14:56;;;;;;;;;;;9.00;99.90;;;;;;5005571;28;20411;-61
2023/04/12 02:17:21;;;;;;;;;;;9.00;99.90;;;;;;5006142;28;19917;-60
2023/04/12 02:19:47;;;;;;;;;;;8.90;99.90;;;;;;5010683;28;20418;-61
2023/04/12 02:22:12;;;;;;;;;;;8.90;99.90;;;;;;5006300;28;19925;-62
2023/04/12 02:24:38;;;;;;;;;;;8.90;99.90;;;;;;5010129;28;19917;-62
2023/04/12 02:27:04;;;;;;;;;;;8.90;99.90;;;;;;5007679;28;19992;-60
2023/04/12 02:29:30;;;;;;;;;;;8.90;99.90;;;;;;5007870;28;19925;-62
2023/04/12 02:31:55;;;;;;;;;;;8.90;99.90;;;;;;5005441;28;19914;-63
2023/04/12 02:34:21;;;;;;;;;;;8.90;99.90;;;;;;5009014;28;20430;-63
2023/04/12 02:36:47;;;;;;;;;;;8.90;99.90;;;;;;5008613;28;19913;-62
2023/04/12 02:39:13;;;;;;;;;;;8.90;99.90;;;;;;5009642;28;20310;-62
2023/04/12 02:41:39;;;;;;;;;;;8.90;99.90;;;;;;5003678;28;20008;-62
2023/04/12 02:44:04;;;;;;;;;;;8.90;99.90;;;;;;5009311;28;19924;-61
2023/04/12 02:46:30;;;;;;;;;;;8.80;99.90;;;;;;5007123;28;20008;-62
2023/04/12 02:48:55;;;;;;;;;;;8.80;99.90;;;;;;5007427;28;19918;-62
2023/04/12 02:51:20;;;;;;;;;;;8.80;99.90;;;;;;5008075;28;19917;-61
2023/04/12 02:53:46;;;;;;;;;;;8.80;99.90;;;;;;5011961;28;19914;-63
2023/04/12 02:56:11;;;;;;;;;;;8.80;99.90;;;;;;5005923;28;20363;-63
2023/04/12 02:58:37;;;;;;;;;;;8.70;99.90;;;;;;5006461;28;19968;-63
2023/04/12 03:01:06;;;;;;;;;;;8.70;99.90;;;;;;5007296;28;19918;-62
2023/04/12 03:03:32;;;;;;;;;;;8.70;99.90;;;;;;5005210;28;19914;-63
2023/04/12 03:05:58;;;;;;;;;;;8.70;99.90;;;;;;5003412;28;19937;-61
2023/04/12 03:08:23;;;;;;;;;;;8.70;99.90;;;;;;5004006;28;20352;-62
2023/04/12 03:10:49;;;;;;;;;;;8.70;99.90;;;;;;5004330;28;20430;-64
2023/04/12 03:13:14;;;;;;;;;;;8.60;99.90;;;;;;5009542;28;19920;-62
2023/04/12 03:15:42;;;;;;;;;;;8.60;99.90;;;;;;5005315;28;20372;-61
2023/04/12 03:18:08;;;;;;;;;;;8.70;99.90;;;;;;5004027;28;19922;-61
2023/04/12 03:20:33;;;;;;;;;;;8.70;99.90;;;;;;5007542;28;19925;-60
2023/04/12 03:23:00;;;;;;;;;;;8.60;99.90;;;;;;5004442;28;20303;-62
2023/04/12 03:25:26;;;;;;;;;;;8.60;99.90;;;;;;5009039;28;20295;-61
2023/04/12 03:27:51;;;;;;;;;;;8.70;99.90;;;;;;5004351;28;19919;-62
2023/04/12 03:30:17;;;;;;;;;;;8.60;99.90;;;;;;5009965;28;19917;-62
2023/04/12 03:32:42;;;;;;;;;;;8.70;99.90;;;;;;5007246;28;19987;-61
2023/04/12 03:35:08;;;;;;;;;;;8.70;99.90;;;;;;5003228;28;19928;-60
2023/04/12 03:37:34;;;;;;;;;;;8.70;99.90;;;;;;5004768;28;20307;-64
2023/04/12 03:40:00;;;;;;;;;;;8.70;99.90;;;;;;5010735;28;19920;-63
2023/04/12 03:42:26;;;;;;;;;;;8.60;99.90;;;;;;5005753;28;19921;-61
2023/04/12 03:44:52;;;;;;;;;;;8.60;99.90;;;;;;5006371;28;20390;-62
2023/04/12 03:47:18;;;;;;;;;;;8.60;99.90;;;;;;5005734;28;19913;-62
2023/04/12 03:49:44;;;;;;;;;;;8.60;99.90;;;;;;5008215;28;19926;-62
2023/04/12 03:52:09;;;;;;;;;;;8.60;99.90;;;;;;5005759;28;19979;-63
2023/04/12 03:54:35;;;;;;;;;;;8.70;99.90;;;;;;5007417;28;19918;-62
2023/04/12 03:57:00;;;;;;;;;;;8.60;99.90;;;;;;5002917;28;20376;-60
2023/04/12 03:59:26;;;;;;;;;;;8.60;99.90;;;;;;5002570;28;19918;-61
2023/04/12 04:01:52;;;;;;;;;;;8.60;99.90;;;;;;5005471;28;19920;-62
2023/04/12 04:04:17;;;;;;;;;;;8.60;99.90;;;;;;5009361;28;19913;-59
2023/04/12 04:06:43;;;;;;;;;;;8.60;99.90;;;;;;5005060;28;20298;-61
2023/04/12 04:09:08;;;;;;;;;;;8.60;99.90;;;;;;5008500;28;19921;-59
2023/04/12 04:11:34;;;;;;;;;;;8.50;99.90;;;;;;5003306;28;20346;-62
2023/04/12 04:13:59;;;;;;;;;;;8.50;99.90;;;;;;5006223;28;19921;-62
2023/04/12 04:16:25;;;;;;;;;;;8.60;99.90;;;;;;5006384;28;20091;-62
2023/04/12 04:18:50;;;;;;;;;;;8.60;99.90;;;;;;5007254;28;19921;-58
2023/04/12 04:21:16;;;;;;;;;;;8.60;99.90;;;;;;5007201;28;20413;-63
2023/04/12 04:23:44;;;;;;;;;;;8.60;99.90;;;;;;5003136;28;19944;-62
2023/04/12 04:26:10;;;;;;;;;;;8.60;99.90;;;;;;5003643;28;19935;-63
2023/04/12 04:28:37;;;;;;;;;;;8.60;99.90;;;;;;5005383;28;19984;-64
2023/04/12 04:31:05;;;;;;;;;;;8.70;99.90;;;;;;5006877;28;20004;-60
2023/04/12 04:33:34;;;;;;;;;;;8.70;99.90;;;;;;5008235;28;19914;-62
2023/04/12 04:36:00;;;;;;;;;;;8.70;99.90;;;;;;5005152;28;19960;-61
2023/04/12 04:38:26;;;;;;;;;;;8.60;99.90;;;;;;5001048;28;19921;-63
2023/04/12 04:40:52;;;;;;;;;;;8.70;99.90;;;;;;5002191;28;19921;-63
2023/04/12 04:43:19;;;;;;;;;;;8.70;99.90;;;;;;5008380;28;19944;-62
2023/04/12 04:45:47;;;;;;;;;;;8.70;99.90;;;;;;5005550;28;19937;-60
2023/04/12 04:48:13;;;;;;;;;;;8.70;99.90;;;;;;5009187;28;19917;-61
2023/04/12 04:50:38;;;;;;;;;;;8.70;99.90;;;;;;5006469;28;20422;-61
2023/04/12 04:53:03;;;;;;;;;;;8.70;99.90;;;;;;5002461;28;19910;-62
2023/04/12 04:55:29;;;;;;;;;;;8.60;99.90;;;;;;5006943;28;19967;-62
2023/04/12 04:57:56;;;;;;;;;;;8.70;99.90;;;;;;5005204;28;20380;-64
2023/04/12 05:00:24;;;;;;;;;;;8.70;99.90;;;;;;5006967;28;19916;-61
2023/04/12 05:02:50;;;;;;;;;;;8.70;99.90;;;;;;5008028;28;20372;-63
2023/04/12 05:05:16;;;;;;;;;;;8.70;99.90;;;;;;5003380;28;20012;-64
2023/04/12 05:07:44;;;;;;;;;;;8.70;99.90;;;;;;5009310;28;20504;-62
2023/04/12 05:10:10;;;;;;;;;;;8.60;99.90;;;;;;5010320;28;20273;-63
2023/04/12 05:12:36;;;;;;;;;;;8.60;99.90;;;;;;5000314;28;19925;-63
2023/04/12 05:15:02;;;;;;;;;;;8.60;99.90;;;;;;5002713;28;19917;-62
2023/04/12 05:17:28;;;;;;;;;;;8.60;99.90;;;;;;5007098;28;19913;-61
2023/04/12 05:19:53;;;;;;;;;;;8.60;99.90;;;;;;5009807;28;19910;-63
2023/04/12 05:22:20;;;;;;;;;;;8.60;99.90;;;;;;5011785;28;20269;-61
2023/04/12 05:24:46;;;;;;;;;;;8.60;99.90;;;;;;5007443;28;19917;-63
2023/04/12 05:27:12;;;;;;;;;;;8.60;99.90;;;;;;5006883;28;19926;-63
2023/04/12 05:29:38;;;;;;;;;;;8.60;99.90;;;;;;5010988;28;19945;-62
2023/04/12 05:32:03;;;;;;;;;;;8.60;99.90;;;;;;5008599;28;19949;-63
2023/04/12 05:34:29;;;;;;;;;;;8.60;99.90;;;;;;5012003;28;20342;-62
2023/04/12 05:36:55;;;;;;;;;;;8.60;99.90;;;;;;5008159;28;19932;-63
2023/04/12 05:39:21;;;;;;;;;;;8.70;99.90;;;;;;5007654;28;19949;-61
2023/04/12 05:41:46;;;;;;;;;;;8.70;99.90;;;;;;5011302;28;20391;-63
2023/04/12 05:44:12;;;;;;;;;;;8.60;99.90;;;;;;5008199;28;19930;-62
2023/04/12 05:46:37;;;;;;;;;;;8.70;99.90;;;;;;5006680;28;19960;-62
2023/04/12 05:49:03;;;;;;;;;;;8.70;99.90;;;;;;5011372;28;19918;-62
2023/04/12 05:51:28;;;;;;;;;;;8.70;99.90;;;;;;5006915;28;19949;-62
2023/04/12 05:53:54;;;;;;;;;;;8.80;99.90;;;;;;5009072;28;19922;-62
2023/04/12 05:56:19;;;;;;;;;;;8.80;99.90;;;;;;5005679;28;20347;-63
2023/04/12 05:58:46;;;;;;;;;;;8.70;99.90;;;;;;5009219;28;19936;-62
2023/04/12 06:01:11;;;;;;;;;;;8.70;99.90;;;;;;5009085;28;19944;-62
2023/04/12 06:03:40;;;;;;;;;;;8.80;99.90;;;;;;5010244;28;20383;-64
2023/04/12 06:06:06;;;;;;;;;;;8.80;99.90;;;;;;5009620;28;20291;-63
2023/04/12 06:08:31;;;;;;;;;;;8.70;99.90;;;;;;5012671;28;19913;-63
2023/04/12 06:10:57;;;;;;;;;;;8.70;99.90;;;;;;5011028;28;19919;-64
2023/04/12 06:13:22;;;;;;;;;;;8.80;99.90;;;;;;5011092;28;20548;-62
2023/04/12 06:15:48;;;;;;;;;;;8.80;99.90;;;;;;5009848;28;20256;-62
2023/04/12 06:18:14;;;;;;;;;;;8.80;99.90;;;;;;5011959;28;19919;-62
2023/04/12 06:20:40;;;;;;;;;;;8.80;99.90;;;;;;5010967;28;20000;-62
2023/04/12 06:23:05;;;;;;;;;;;8.80;99.90;;;;;;5006879;28;20368;-62
2023/04/12 06:25:31;;;;;;;;;;;8.80;99.90;;;;;;5008761;28;19987;-63
2023/04/12 06:27:57;;;;;;;;;;;8.80;99.90;;;;;;5012256;28;20387;-62
2023/04/12 06:30:22;;;;;;;;;;;8.80;99.90;;;;;;5009178;28;19922;-63
2023/04/12 06:32:48;;;;;;;;;;;8.80;99.90;;;;;;5009054;28;20000;-63
2023/04/12 06:35:13;;;;;;;;;;;8.80;99.90;;;;;;5005230;28;19914;-63
2023/04/12 06:37:39;;;;;;;;;;;8.90;99.90;;;;;;5003729;28;20356;-63
2023/04/12 06:40:05;;;;;;;;;;;8.90;99.90;;;;;;5007540;28;19917;-63
2023/04/12 06:42:30;;;;;;;;;;;8.90;99.90;;;;;;5010463;28;19914;-63
2023/04/12 06:44:56;;;;;;;;;;;8.90;99.90;;;;;;5006930;28;19914;-61
2023/04/12 06:47:21;;;;;;;;;;;8.80;99.90;;;;;;5007163;28;19920;-64
2023/04/12 06:49:47;;;;;;;;;;;8.90;99.90;;;;;;5007441;28;19925;-63
2023/04/12 06:52:12;;;;;;;;;;;8.90;99.90;;;;;;5008482;28;19917;-61
2023/04/12 06:54:38;;;;;;;;;;;9.00;99.90;;;;;;5010968;28;19939;-64
2023/04/12 06:57:07;;;;;;;;;;;9.00;99.90;;;;;;5007714;28;20311;-64
2023/04/12 06:59:33;;;;;;;;;;;9.00;99.90;;;;;;5011075;28;19925;-63
2023/04/12 07:01:58;;;;;;;;;;;9.10;99.90;;;;;;5007984;28;20287;-64
2023/04/12 07:04:24;;;;;;;;;;;9.20;99.90;;;;;;5007983;28;19959;-63
2023/04/12 07:06:49;;;;;;;;;;;9.10;99.90;;;;;;5007078;28;19914;-63
2023/04/12 07:09:15;;;;;;;;;;;9.20;99.90;;;;;;5008523;28;19918;-64
2023/04/12 07:11:40;;;;;;;;;;;9.20;99.90;;;;;;5010748;28;19913;-64
2023/04/12 07:14:06;;;;;;;;;;;9.20;99.90;;;;;;5010343;28;19932;-64
2023/04/12 07:16:31;;;;;;;;;;;9.20;99.90;;;;;;5009048;28;20292;-63
2023/04/12 07:18:57;;;;;;;;;;;9.20;99.90;;;;;;5005479;28;20047;-64
2023/04/12 07:21:23;;;;;;;;;;;9.30;99.90;;;;;;5004668;28;19924;-64
2023/04/12 07:23:50;;;;;;;;;;;9.30;99.90;;;;;;5007181;28;19913;-64
2023/04/12 07:26:15;;;;;;;;;;;9.30;99.90;;;;;;5007296;28;19914;-64
2023/04/12 07:28:41;;;;;;;;;;;9.30;99.90;;;;;;5007151;28;20406;-64
2023/04/12 07:31:06;;;;;;;;;;;9.30;99.90;;;;;;5001559;28;20300;-64
2023/04/12 07:33:33;;;;;;;;;;;9.30;99.90;;;;;;4997554;28;19914;-63
2023/04/12 07:35:59;;;;;;;;;;;9.30;99.90;;;;;;4988415;28;20536;-64
2023/04/12 07:38:25;;;;;;;;;;;9.40;99.90;;;;;;4995775;28;21680;-64
2023/04/12 07:40:50;;;;;;;;;;;9.40;99.90;;;;;;4996667;28;19913;-64
2023/04/12 07:43:16;;;;;;;;;;;9.50;99.90;;;;;;4998791;28;20383;-64
2023/04/12 07:45:41;;;;;;;;;;;9.60;99.90;;;;;;4995148;28;20388;-64
2023/04/12 07:48:07;;;;;;;;;;;9.60;99.90;;;;;;4996171;28;19914;-64
2023/04/12 07:50:32;;;;;;;;;;;9.60;99.90;;;;;;4997984;28;19929;-64
2023/04/12 07:53:16;;;;;;;;;;;9.60;99.90;;;;;;4996427;28;19918;-63
2023/04/12 07:55:42;;;;;;;;;;;9.50;99.90;;;;;;5000122;28;20003;-64
2023/04/12 07:58:08;;;;;;;;;;;9.50;99.90;;;;;;4997594;28;19961;-64
2023/04/12 08:00:34;;;;;;;;;;;9.60;99.90;;;;;;4995944;28;20051;-64
2023/04/12 08:02:59;;;;;;;;;;;9.60;99.90;;;;;;4998288;28;19983;-63
2023/04/12 08:05:25;;;;;;;;;;;9.60;99.90;;;;;;4996415;28;20036;-64
2023/04/12 08:07:50;;;;;;;;;;;9.70;99.90;;;;;;4992350;28;19929;-64
2023/04/12 08:10:16;;;;;;;;;;;9.70;99.90;;;;;;4997019;28;19936;-64
2023/04/12 08:12:41;;;;;;;;;;;9.70;99.90;;;;;;4993200;28;19961;-64
2023/04/12 08:15:07;;;;;;;;;;;9.80;99.90;;;;;;4999629;28;19928;-64
2023/04/12 08:17:32;;;;;;;;;;;9.80;99.90;;;;;;4997407;28;20125;-64
2023/04/12 08:19:58;;;;;;;;;;;9.80;99.90;;;;;;4996063;28;19929;-65
2023/04/12 08:22:23;;;;;;;;;;;9.90;99.90;;;;;;4992894;28;20422;-64
2023/04/12 08:24:48;;;;;;;;;;;9.90;99.90;;;;;;4998418;28;19922;-64
2023/04/12 08:27:15;;;;;;;;;;;10.00;99.90;;;;;;4992399;28;19949;-64
2023/04/12 08:29:40;;;;;;;;;;;10.10;99.90;;;;;;4997793;28;19917;-64
2023/04/12 08:32:08;;;;;;;;;;;10.10;99.90;;;;;;4990459;28;20120;-64
2023/04/12 08:34:33;;;;;;;;;;;10.20;99.90;;;;;;4995700;28;19920;-64
2023/04/12 08:36:59;;;;;;;;;;;10.20;99.90;;;;;;4987773;28;20358;-64
2023/04/12 08:39:25;;;;;;;;;;;10.30;99.90;;;;;;4995779;28;19917;-64
2023/04/12 08:41:52;;;;;;;;;;;10.40;99.90;;;;;;4994734;28;19929;-64
2023/04/12 08:44:18;;;;;;;;;;;10.40;99.90;;;;;;4996978;28;19913;-64
2023/04/12 08:46:44;;;;;;;;;;;10.40;99.90;;;;;;4992894;28;20375;-64
2023/04/12 08:49:10;;;;;;;;;;;10.40;99.90;;;;;;4999519;28;19983;-64
2023/04/12 08:51:36;;;;;;;;;;;10.40;99.90;;;;;;4992564;28;19921;-64
2023/04/12 08:54:03;;;;;;;;;;;10.40;99.90;;;;;;4998076;28;19991;-64
2023/04/12 08:56:30;;;;;;;;;;;10.50;99.90;;;;;;5000666;28;19929;-64
2023/04/12 08:58:56;;;;;;;;;;;10.70;99.90;;;;;;4995771;28;19921;-63
2023/04/12 09:01:21;;;;;;;;;;;10.70;99.90;;;;;;4995823;28;19919;-64
2023/04/12 09:03:47;;;;;;;;;;;10.90;99.90;;;;;;5000363;28;20003;-64
2023/04/12 09:06:12;;;;;;;;;;;11.00;99.90;;;;;;4999189;28;19968;-63
2023/04/12 09:08:49;;;;;;;;;;;10.90;99.90;;;;;;4999117;28;20517;-62
2023/04/12 09:11:27;;;;;;;;;;;11.00;99.90;;;;;;4996921;28;19924;-62
2023/04/12 09:13:54;;;;;;;;;;;11.20;99.90;;;;;;4998792;28;20411;-62
2023/04/12 09:16:38;;;;;;;;;;;11.30;99.90;;;;;;5002209;28;20423;-63
2023/04/12 09:19:04;;;;;;;;;;;11.30;99.90;;;;;;4998899;28;20049;-63
2023/04/12 09:21:30;;;;;;;;;;;11.20;99.90;;;;;;4997382;28;20476;-63
2023/04/12 09:24:04;;;;;;;;;;;11.10;99.90;;;;;;5005031;28;19922;-63
2023/04/12 09:26:30;;;;;;;;;;;11.20;99.90;;;;;;5009644;28;19921;-63
2023/04/12 09:28:56;;;;;;;;;;;11.20;99.90;;;;;;5007061;28;19978;-62
2023/04/12 09:31:21;;;;;;;;;;;11.20;99.90;;;;;;5007923;28;20077;-62
2023/04/12 09:33:47;;;;;;;;;;;11.10;99.90;;;;;;5006093;28;20552;-63
2023/04/12 09:36:13;;;;;;;;;;;11.20;99.90;;;;;;5007813;28;20454;-62
2023/04/12 09:38:40;;;;;;;;;;;11.20;99.90;;;;;;5006121;28;19971;-63
2023/04/12 09:41:21;;;;;;;;;;;11.30;99.90;;;;;;5007882;28;19937;-63
2023/04/12 09:43:46;;;;;;;;;;;11.30;99.90;;;;;;5007070;28;20307;-63
2023/04/12 09:46:12;;;;;;;;;;;11.40;99.90;;;;;;5005412;28;19913;-63
2023/04/12 09:48:39;;;;;;;;;;;11.30;99.90;;;;;;5007543;28;19914;-63
2023/04/12 09:51:05;;;;;;;;;;;11.30;99.90;;;;;;5007258;28;19914;-63
2023/04/12 09:53:32;;;;;;;;;;;11.30;99.90;;;;;;5009856;28;20368;-62
2023/04/12 09:55:58;;;;;;;;;;;11.30;99.90;;;;;;5006782;28;19917;-63
2023/04/12 09:58:25;;;;;;;;;;;11.30;99.90;;;;;;5011121;28;19920;-64
2023/04/12 10:00:50;;;;;;;;;;;11.30;99.90;;;;;;5007453;28;19921;-64
2023/04/12 10:03:17;;;;;;;;;;;11.30;99.90;;;;;;5004458;28;19921;-64
2023/04/12 10:05:42;;;;;;;;;;;11.30;99.90;;;;;;5009232;28;20452;-65
2023/04/12 10:08:10;;;;;;;;;;;11.30;99.90;;;;;;5005276;28;19968;-65
2023/04/12 10:10:35;;;;;;;;;;;11.40;99.90;;;;;;5000059;28;20011;-65
2023/04/12 10:13:01;;;;;;;;;;;11.50;99.90;;;;;;5006857;28;20396;-65
2023/04/12 10:15:28;;;;;;;;;;;11.60;99.90;;;;;;5007370;28;19923;-65
2023/04/12 10:17:53;;;;;;;;;;;11.60;99.90;;;;;;5010013;28;20011;-67
2023/04/12 10:20:20;;;;;;;;;;;11.70;99.90;;;;;;5008386;28;19962;-65
2023/04/12 10:22:47;;;;;;;;;;;11.80;99.90;;;;;;5012183;28;19921;-65
2023/04/12 10:25:14;;;;;;;;;;;11.80;99.90;;;;;;5007451;28;19963;-65
2023/04/12 10:27:41;;;;;;;;;;;11.80;99.90;;;;;;5004373;28;20398;-66
2023/04/12 10:30:26;;;;;;;;;;;11.70;99.90;;;;;;5005592;28;20021;-65
2023/04/12 10:33:03;;;;;;;;;;;11.60;99.90;;;;;;5006712;28;19921;-65
2023/04/12 10:35:49;;;;;;;;;;;11.60;99.90;;;;;;5006615;28;20095;-65
2023/04/12 10:38:15;;;;;;;;;;;11.50;99.90;;;;;;5008820;28;20012;-65
2023/04/12 10:40:59;;;;;;;;;;;11.40;99.90;;;;;;5011370;28;20009;-66
2023/04/12 10:43:25;;;;;;;;;;;11.40;99.90;;;;;;5007176;28;19936;-66
2023/04/12 10:45:51;;;;;;;;;;;11.30;99.90;;;;;;5008372;28;19913;-66
2023/04/12 10:48:35;;;;;;;;;;;11.30;99.90;;;;;;5007361;28;19982;-66
2023/04/12 10:51:11;;;;;;;;;;;11.20;99.90;;;;;;5003546;28;19973;-65
2023/04/12 10:53:36;;;;;;;;;;;11.10;99.90;;;;;;5009346;28;19914;-65
2023/04/12 10:56:22;;;;;;;;;;;11.00;99.90;;;;;;5005606;28;20399;-64
2023/04/12 10:58:47;;;;;;;;;;;11.00;99.90;;;;;;5005608;28;19914;-65
2023/04/12 11:01:17;;;;;;;;;;;11.00;99.90;;;;;;5003020;28;19988;-65
2023/04/12 11:04:01;;;;;;;;;;;10.90;99.90;;;;;;5003450;28;19914;-64
2023/04/12 11:07:03;;;;;;;;;;;10.80;99.90;;;;;;5005507;28;19968;-65
2023/04/12 11:09:31;;;;;;;;;;;10.70;99.90;;;;;;5003010;28;19917;-64
2023/04/12 11:11:58;;;;;;;;;;;10.60;99.90;;;;;;5004287;28;19961;-64
2023/04/12 11:14:28;;;;;;;;;;;10.60;99.90;;;;;;5006348;28;19932;-67
2023/04/12 11:17:12;;;;;;;;;;;10.60;99.90;;;;;;5003919;28;19953;-65
2023/04/12 11:19:42;;;;;;;;;;;10.60;99.90;;;;;;5002995;28;20002;-64
2023/04/12 11:22:14;;;;;;;;;;;10.70;99.90;;;;;;5002569;28;19987;-65
2023/04/12 11:24:47;;;;;;;;;;;10.70;99.90;;;;;;5007683;28;19917;-64
2023/04/12 11:27:15;;;;;;;;;;;10.80;99.90;;;;;;5009184;28;19917;-65
2023/04/12 11:29:42;;;;;;;;;;;10.80;99.90;;;;;;5008809;28;19975;-65
2023/04/12 11:32:13;;;;;;;;;;;10.80;99.90;;;;;;4997200;28;20395;-65
2023/04/12 11:34:40;;;;;;;;;;;11.00;99.90;;;;;;5008383;28;19964;-65
2023/04/12 11:37:09;;;;;;;;;;;11.00;99.90;;;;;;5008710;28;19917;-65
2023/04/12 11:39:35;;;;;;;;;;;11.10;99.90;;;;;;5010198;28;19917;-65
2023/04/12 11:42:02;;;;;;;;;;;11.10;99.90;;;;;;5005450;28;20380;-65
2023/04/12 11:44:27;;;;;;;;;;;11.20;99.90;;;;;;5008171;28;19917;-65
2023/04/12 11:46:53;;;;;;;;;;;11.30;99.90;;;;;;5008427;28;19966;-65
2023/04/12 11:49:19;;;;;;;;;;;11.30;99.90;;;;;;5006710;28;20012;-65
2023/04/12 11:51:45;;;;;;;;;;;11.30;99.90;;;;;;5005846;28;20004;-65
2023/04/12 11:54:11;;;;;;;;;;;11.30;99.90;;;;;;5004973;28;20288;-64
2023/04/12 11:56:37;;;;;;;;;;;11.40;99.90;;;;;;5007164;28;19913;-65
2023/04/12 11:59:03;;;;;;;;;;;11.60;99.90;;;;;;5009232;28;20004;-65
2023/04/12 12:01:30;;;;;;;;;;;11.60;99.90;;;;;;5009374;28;19914;-64
2023/04/12 12:03:56;;;;;;;;;;;11.60;99.90;;;;;;5007621;28;19922;-65
2023/04/12 12:06:22;;;;;;;;;;;11.70;99.90;;;;;;5007503;28;19964;-64
2023/04/12 12:08:51;;;;;;;;;;;11.70;99.90;;;;;;5004315;28;20004;-66
2023/04/12 12:11:20;;;;;;;;;;;11.80;99.90;;;;;;5003347;28;19960;-65
2023/04/12 12:13:49;;;;;;;;;;;11.80;99.90;;;;;;5006833;28;19959;-65
2023/04/12 12:16:16;;;;;;;;;;;12.00;99.90;;;;;;5002298;28;19936;-64
2023/04/12 12:18:42;;;;;;;;;;;12.10;99.90;;;;;;5011899;28;20283;-65
2023/04/12 12:21:08;;;;;;;;;;;12.00;99.90;;;;;;5004549;28;19922;-64
2023/04/12 12:23:34;;;;;;;;;;;12.10;99.90;;;;;;5010328;28;19925;-65
2023/04/12 12:26:00;;;;;;;;;;;12.20;99.90;;;;;;5003927;28;19917;-63
2023/04/12 12:28:26;;;;;;;;;;;12.30;99.90;;;;;;5008976;28;19935;-64
2023/04/12 12:30:56;;;;;;;;;;;12.40;99.90;;;;;;5006051;28;20376;-63
2023/04/12 12:33:22;;;;;;;;;;;12.50;99.90;;;;;;5009414;28;19976;-64
2023/04/12 12:35:54;;;;;;;;;;;12.70;99.90;;;;;;5005011;28;20526;-64
2023/04/12 12:38:20;;;;;;;;;;;12.80;99.90;;;;;;5007400;28;19920;-64
2023/04/12 12:40:45;;;;;;;;;;;13.20;99.90;;;;;;4998293;28;19921;-64
2023/04/12 12:43:16;;;;;;;;;;;13.50;99.90;;;;;;4997111;28;20297;-64
2023/04/12 12:45:41;;;;;;;;;;;13.50;99.90;;;;;;5002136;28;19957;-65
2023/04/12 12:48:07;;;;;;;;;;;13.40;99.90;;;;;;5002265;28;19999;-65
2023/04/12 12:50:33;;;;;;;;;;;13.40;99.90;;;;;;5003399;28;19928;-65
2023/04/12 12:52:59;;;;;;;;;;;13.50;99.90;;;;;;5001898;28;19920;-63
2023/04/12 12:55:25;;;;;;;;;;;13.80;99.90;;;;;;5003964;28;20310;-65
2023/04/12 12:57:52;;;;;;;;;;;13.70;99.90;;;;;;5002925;28;20387;-63
2023/04/12 13:00:18;;;;;;;;;;;14.20;99.90;;;;;;5003505;28;20034;-64
2023/04/12 13:02:43;;;;;;;;;;;14.60;99.90;;;;;;5005306;28;19979;-64
2023/04/12 13:05:09;;;;;;;;;;;14.50;99.90;;;;;;5005818;28;20315;-65
2023/04/12 13:07:35;;;;;;;;;;;14.50;99.90;;;;;;5006491;28;19922;-64
2023/04/12 13:10:01;;;;;;;;;;;14.40;99.90;;;;;;5003840;28;19917;-64
2023/04/12 13:12:26;;;;;;;;;;;14.20;99.90;;;;;;5005214;28;20004;-63
2023/04/12 13:14:52;;;;;;;;;;;14.00;99.90;;;;;;5003163;28;19976;-65
2023/04/12 13:17:17;;;;;;;;;;;13.80;99.90;;;;;;5003771;28;20001;-65
2023/04/12 13:19:44;;;;;;;;;;;13.50;99.90;;;;;;5008301;28;20007;-64
2023/04/12 13:22:09;;;;;;;;;;;13.30;99.90;;;;;;5002462;28;19948;-64
2023/04/12 13:24:35;;;;;;;;;;;13.10;99.90;;;;;;4999098;28;19917;-63
2023/04/12 13:27:01;;;;;;;;;;;13.20;99.90;;;;;;5006690;28;19949;-63
2023/04/12 13:29:27;;;;;;;;;;;13.20;99.90;;;;;;5002331;28;19971;-64
2023/04/12 13:31:52;;;;;;;;;;;13.30;99.90;;;;;;5003995;28;20394;-63
2023/04/12 13:34:18;;;;;;;;;;;13.60;99.90;;;;;;5006088;28;19929;-64
2023/04/12 13:36:43;;;;;;;;;;;13.90;99.90;;;;;;5003214;28;19960;-64
2023/04/12 13:39:09;;;;;;;;;;;13.80;99.90;;;;;;5004468;28;19913;-64
2023/04/12 13:41:34;;;;;;;;;;;13.70;99.90;;;;;;5007672;28;19917;-63
2023/04/12 13:44:00;;;;;;;;;;;13.80;99.90;;;;;;5004549;28;19921;-62
2023/04/12 13:46:25;;;;;;;;;;;13.90;99.90;;;;;;5007268;28;20000;-63
2023/04/12 13:48:51;;;;;;;;;;;14.10;99.90;;;;;;5010247;28;20338;-63
2023/04/12 13:51:16;;;;;;;;;;;14.70;99.90;;;;;;5006827;28;19918;-64
2023/04/12 13:53:42;;;;;;;;;;;15.30;99.90;;;;;;5007442;28;19921;-64
2023/04/12 13:56:08;;;;;;;;;;;15.90;99.90;;;;;;5008325;28;19921;-64
2023/04/12 13:58:33;;;;;;;;;;;16.20;99.90;;;;;;5010181;28;19918;-64
2023/04/12 14:00:59;;;;;;;;;;;16.50;99.90;;;;;;5007772;28;19920;-64
2023/04/12 14:03:25;;;;;;;;;;;16.50;99.90;;;;;;5011951;28;19913;-63
2023/04/12 14:05:50;;;;;;;;;;;16.20;99.90;;;;;;5008525;28;19920;-63
2023/04/12 14:08:16;;;;;;;;;;;15.90;99.90;;;;;;5007172;28;19920;-64
2023/04/12 14:10:41;;;;;;;;;;;16.10;99.90;;;;;;5005430;28;19926;-63
2023/04/12 14:13:07;;;;;;;;;;;16.00;99.90;;;;;;5006213;28;19918;-63
2023/04/12 14:15:32;;;;;;;;;;;15.60;99.90;;;;;;5006922;28;19918;-66
2023/04/12 14:17:58;;;;;;;;;;;15.60;99.90;;;;;;5012118;28;19929;-63
2023/04/12 14:20:23;;;;;;;;;;;15.50;99.90;;;;;;5006769;28;19922;-63
2023/04/12 14:22:49;;;;;;;;;;;15.40;99.90;;;;;;5009835;28;19952;-64